Time;durP1;ratioP1;P1;durP2;ratioP2;P2;SDS_P1;SDS_P2;PMS_P1;PMS_P2;Temp;Humidity;BMP_temperature;BMP_pressure;BME280_temperature;BME280_humidity;BME280_pressure;Samples;Min_cycle;Max_cycle;Signal;HPM_P1;HPM_P2
2023/04/19 00:01:52;;;;;;;;;;;;;;;8.68;98.37;96952.84;5056093;28;19947;-73
2023/04/19 00:04:19;;;;;;;;;;;;;;;8.65;100.00;96960.25;5054107;28;20040;-73
2023/04/19 00:06:46;;;;;;;;;;;;;;;8.63;100.00;96957.84;5053686;28;19939;-72
2023/04/19 00:09:12;;;;;;;;;;;;;;;8.64;99.37;96946.38;5037514;28;19949;-73
2023/04/19 00:11:38;;;;;;;;;;;;;;;8.65;99.46;96947.19;5055472;28;19996;-72
2023/04/19 00:14:03;;;;;;;;;;;;;;;8.64;99.07;96942.97;5054320;28;19945;-72
2023/04/19 00:16:29;;;;;;;;;;;;;;;8.62;98.98;96945.75;5037567;28;19973;-74
2023/04/19 00:18:55;;;;;;;;;;;;;;;8.63;100.00;96950.00;5054364;28;19951;-74
2023/04/19 00:21:21;;;;;;;;;;;;;;;8.63;99.72;96947.38;5037627;28;19960;-75
2023/04/19 00:23:47;;;;;;;;;;;;;;;8.62;100.00;96947.56;5056257;28;19948;-72
2023/04/19 00:26:14;;;;;;;;;;;;;;;8.60;99.76;96939.91;5055349;28;19939;-73
2023/04/19 00:28:40;;;;;;;;;;;;;;;8.60;100.00;96942.53;5055279;28;20318;-72
2023/04/19 00:31:06;;;;;;;;;;;;;;;8.60;100.00;96936.50;5055240;28;19955;-73
2023/04/19 00:33:32;;;;;;;;;;;;;;;8.59;98.58;96930.47;5054073;28;19950;-72
2023/04/19 00:35:58;;;;;;;;;;;;;;;8.57;98.83;96923.81;5054965;28;19963;-85
2023/04/19 00:38:24;;;;;;;;;;;;;;;8.56;100.00;96935.28;5055166;28;19947;-74
2023/04/19 00:40:50;;;;;;;;;;;;;;;8.52;100.00;96930.44;5038002;28;19952;-73
2023/04/19 00:43:19;;;;;;;;;;;;;;;8.52;100.00;96927.00;5053809;28;19944;-74
2023/04/19 00:45:45;;;;;;;;;;;;;;;8.50;98.85;96923.78;5053802;28;20302;-74
2023/04/19 00:48:12;;;;;;;;;;;;;;;8.49;100.00;96933.44;5054515;28;19952;-74
2023/04/19 00:50:38;;;;;;;;;;;;;;;8.48;100.00;96928.38;5053540;28;19948;-73
2023/04/19 00:53:04;;;;;;;;;;;;;;;8.46;100.00;96928.59;5037782;28;19946;-75
2023/04/19 00:55:30;;;;;;;;;;;;;;;8.44;100.00;96920.13;5053716;28;19945;-76
2023/04/19 00:57:56;;;;;;;;;;;;;;;8.44;100.00;96929.75;5054219;28;20311;-73
2023/04/19 01:00:22;;;;;;;;;;;;;;;8.43;100.00;96921.13;5053488;28;19944;-72
2023/04/19 01:02:48;;;;;;;;;;;;;;;8.40;100.00;96913.66;5054262;28;19943;-72
2023/04/19 01:05:13;;;;;;;;;;;;;;;8.40;100.00;96925.88;5037528;28;20018;-73
2023/04/19 01:07:41;;;;;;;;;;;;;;;8.39;100.00;96921.69;5054518;28;19948;-72
2023/04/19 01:10:07;;;;;;;;;;;;;;;8.39;100.00;96912.03;5055199;28;19948;-72
2023/04/19 01:12:33;;;;;;;;;;;;;;;8.38;100.00;96925.28;5054428;28;19938;-73
2023/04/19 01:14:59;;;;;;;;;;;;;;;8.36;100.00;96912.41;5053815;28;19979;-73
2023/04/19 01:17:25;;;;;;;;;;;;;;;8.39;100.00;96914.63;5037022;28;19967;-74
2023/04/19 01:19:59;;;;;;;;;;;;;;;8.39;100.00;96917.25;5037269;28;19944;-74
2023/04/19 01:22:27;;;;;;;;;;;;;;;8.39;100.00;96911.22;5036284;28;19947;-74
2023/04/19 01:24:53;;;;;;;;;;;;;;;8.37;100.00;96915.84;5053419;28;19953;-74
2023/04/19 01:27:18;;;;;;;;;;;;;;;8.35;100.00;96900.34;5054649;28;20000;-73
2023/04/19 01:29:44;;;;;;;;;;;;;;;8.33;100.00;96913.59;5052914;28;19986;-72
2023/04/19 01:32:12;;;;;;;;;;;;;;;8.29;100.00;96901.94;5054035;28;19953;-73
2023/04/19 01:34:38;;;;;;;;;;;;;;;8.28;100.00;96900.31;5036298;28;19953;-73
2023/04/19 01:37:05;;;;;;;;;;;;;;;8.28;100.00;96894.28;5036002;28;20444;-74
2023/04/19 01:39:31;;;;;;;;;;;;;;;8.27;100.00;96890.88;5036821;28;19952;-74
2023/04/19 01:41:57;;;;;;;;;;;;;;;8.28;100.00;96891.66;5036082;28;19942;-74
2023/04/19 01:44:23;;;;;;;;;;;;;;;8.26;100.00;96884.00;5036806;28;19955;-73
2023/04/19 01:46:49;;;;;;;;;;;;;;;8.23;100.00;96892.25;5052479;28;19999;-73
2023/04/19 01:49:15;;;;;;;;;;;;;;;8.24;100.00;96885.19;5054373;28;19944;-74
2023/04/19 01:51:41;;;;;;;;;;;;;;;8.24;100.00;96888.63;5036753;28;20300;-83
2023/04/19 01:54:07;;;;;;;;;;;;;;;8.23;100.00;96884.41;5053382;28;19948;-84
2023/04/19 01:56:33;;;;;;;;;;;;;;;8.23;100.00;96887.03;5053247;28;19960;-83
2023/04/19 01:58:59;;;;;;;;;;;;;;;8.22;100.00;96874.13;5053597;28;19941;-83
2023/04/19 02:01:25;;;;;;;;;;;;;;;8.22;100.00;96874.13;5053331;28;19938;-81
2023/04/19 02:03:50;;;;;;;;;;;;;;;8.21;100.00;96868.13;5036616;28;20033;-83
2023/04/19 02:06:16;;;;;;;;;;;;;;;8.21;100.00;96867.28;5052341;28;19963;-74
2023/04/19 02:08:42;;;;;;;;;;;;;;;8.17;100.00;96874.72;5052297;28;19948;-73
2023/04/19 02:11:09;;;;;;;;;;;;;;;8.17;100.00;96879.94;5036486;28;20380;-71
2023/04/19 02:13:35;;;;;;;;;;;;;;;8.17;100.00;96872.09;5052347;28;19937;-71
2023/04/19 02:16:01;;;;;;;;;;;;;;;8.17;100.00;96869.50;5052049;28;19981;-72
2023/04/19 02:18:31;;;;;;;;;;;;;;;8.16;100.00;96872.28;5012268;28;20085;-71
2023/04/19 02:20:59;;;;;;;;;;;;;;;8.13;100.00;96863.03;4996146;28;19949;-72
2023/04/19 02:23:25;;;;;;;;;;;;;;;8.13;100.00;96866.44;4995459;28;19945;-72
2023/04/19 02:25:51;;;;;;;;;;;;;;;8.11;100.00;96857.19;4995323;28;20481;-75
2023/04/19 02:28:16;;;;;;;;;;;;;;;8.11;100.00;96865.84;5012518;28;20422;-73
2023/04/19 02:30:42;;;;;;;;;;;;;;;8.10;100.00;96861.59;4998558;28;20024;-73
2023/04/19 02:33:08;;;;;;;;;;;;;;;8.09;100.00;96856.59;4999242;28;19948;-72
2023/04/19 02:35:34;;;;;;;;;;;;;;;8.10;100.00;96860.78;5016117;28;19951;-72
2023/04/19 02:38:01;;;;;;;;;;;;;;;8.11;100.00;96857.19;4976450;28;19965;-72
2023/04/19 02:40:27;;;;;;;;;;;;;;;8.10;100.00;96866.81;4960535;28;20089;-72
2023/04/19 02:42:53;;;;;;;;;;;;;;;8.09;100.00;96862.59;4960349;28;19951;-73
2023/04/19 02:45:19;;;;;;;;;;;;;;;8.08;100.00;96854.94;4976385;28;20033;-74
2023/04/19 02:47:45;;;;;;;;;;;;;;;8.07;100.00;96846.31;4944958;28;19945;-73
2023/04/19 02:50:11;;;;;;;;;;;;;;;8.07;100.00;96846.31;4960014;28;20323;-75
2023/04/19 02:52:38;;;;;;;;;;;;;;;8.06;100.00;96839.50;4944190;28;19947;-73
2023/04/19 02:55:05;;;;;;;;;;;;;;;8.05;100.00;96834.44;4984574;28;19951;-74
2023/04/19 02:57:31;;;;;;;;;;;;;;;8.03;100.00;96837.25;5035707;28;19980;-75
2023/04/19 02:59:57;;;;;;;;;;;;;;;8.04;100.00;96844.09;5034863;28;19947;-74
2023/04/19 03:02:24;;;;;;;;;;;;;;;8.04;100.00;96833.66;5018329;28;19947;-73
2023/04/19 03:04:50;;;;;;;;;;;;;;;8.03;100.00;96842.47;5018295;28;19946;-74
2023/04/19 03:07:16;;;;;;;;;;;;;;;8.01;100.00;96836.63;5034828;28;19941;-74
2023/04/19 03:09:41;;;;;;;;;;;;;;;8.00;100.00;96836.81;5051567;28;19984;-74
2023/04/19 03:12:07;;;;;;;;;;;;;;;7.99;100.00;96838.63;5056959;28;19994;-73
2023/04/19 03:14:33;;;;;;;;;;;;;;;7.99;100.00;96843.06;5055866;28;20040;-74
2023/04/19 03:16:59;;;;;;;;;;;;;;;7.98;100.00;96846.66;5056581;28;19966;-74
2023/04/19 03:19:25;;;;;;;;;;;;;;;7.99;100.00;96840.44;5057366;28;19949;-74
2023/04/19 03:21:51;;;;;;;;;;;;;;;7.98;100.00;96841.44;5055579;28;19939;-73
2023/04/19 03:24:28;;;;;;;;;;;;;;;7.98;100.00;96839.66;5056548;28;19983;-74
2023/04/19 03:26:54;;;;;;;;;;;;;;;7.99;100.00;96835.22;5056592;28;19939;-74
2023/04/19 03:29:20;;;;;;;;;;;;;;;7.99;100.00;96840.44;5039324;28;19954;-73
2023/04/19 03:31:46;;;;;;;;;;;;;;;7.99;100.00;96841.25;5055038;28;19942;-73
2023/04/19 03:34:12;;;;;;;;;;;;;;;8.00;100.00;96831.59;5055715;28;19948;-75
2023/04/19 03:36:38;;;;;;;;;;;;;;;7.97;100.00;96834.59;5054801;28;20020;-73
2023/04/19 03:39:04;;;;;;;;;;;;;;;7.94;100.00;96835.78;5039075;28;19948;-72
2023/04/19 03:41:30;;;;;;;;;;;;;;;7.93;100.00;96836.78;5054708;28;19944;-74
2023/04/19 03:43:59;;;;;;;;;;;;;;;7.92;100.00;96837.78;5056106;28;19942;-73
2023/04/19 03:46:25;;;;;;;;;;;;;;;7.90;100.00;96837.19;5055692;28;20261;-74
2023/04/19 03:48:52;;;;;;;;;;;;;;;7.87;100.00;96827.94;5055600;28;19949;-74
2023/04/19 03:51:18;;;;;;;;;;;;;;;7.88;100.00;96828.72;5056516;28;19942;-73
2023/04/19 03:53:44;;;;;;;;;;;;;;;7.86;100.00;96828.91;5054759;28;19980;-73
2023/04/19 03:56:10;;;;;;;;;;;;;;;7.86;100.00;96828.91;5038716;28;19948;-73
2023/04/19 03:58:36;;;;;;;;;;;;;;;7.83;100.00;96824.09;5056347;28;20430;-81
2023/04/19 04:01:02;;;;;;;;;;;;;;;7.81;100.00;96820.84;5055784;28;20389;-74
2023/04/19 04:03:28;;;;;;;;;;;;;;;7.78;100.00;96829.06;5037800;28;19951;-74
2023/04/19 04:05:54;;;;;;;;;;;;;;;7.79;100.00;96828.06;5038521;28;19960;-73
2023/04/19 04:08:19;;;;;;;;;;;;;;;7.77;100.00;96822.22;5055261;28;20286;-73
2023/04/19 04:10:45;;;;;;;;;;;;;;;7.77;100.00;96826.63;5055602;28;19988;-73
2023/04/19 04:13:11;;;;;;;;;;;;;;;7.74;100.00;96825.22;5056008;28;20445;-73
2023/04/19 04:15:37;;;;;;;;;;;;;;;7.71;100.00;96823.78;5055658;28;20372;-76
2023/04/19 04:18:03;;;;;;;;;;;;;;;7.71;100.00;96823.78;5037571;28;20447;-75
2023/04/19 04:20:29;;;;;;;;;;;;;;;7.72;100.00;96816.75;5055089;28;19951;-76
2023/04/19 04:22:55;;;;;;;;;;;;;;;7.71;100.00;96820.38;5056114;28;19949;-74
2023/04/19 04:25:21;;;;;;;;;;;;;;;7.69;100.00;96823.16;5055272;28;20032;-75
2023/04/19 04:27:49;;;;;;;;;;;;;;;7.68;100.00;96820.75;5054837;28;19944;-76
2023/04/19 04:30:15;;;;;;;;;;;;;;;7.70;100.00;96823.97;5055148;28;19950;-76
2023/04/19 04:32:42;;;;;;;;;;;;;;;7.70;100.00;96830.00;5037404;28;19946;-75
2023/04/19 04:35:08;;;;;;;;;;;;;;;7.72;100.00;96822.78;5053926;28;19944;-73
2023/04/19 04:37:34;;;;;;;;;;;;;;;7.71;100.00;96836.84;5037214;28;19971;-84
2023/04/19 04:40:00;;;;;;;;;;;;;;;7.72;100.00;96829.81;5055845;28;19942;-84
2023/04/19 04:42:26;;;;;;;;;;;;;;;7.72;100.00;96832.41;5054962;28;19943;-84
2023/04/19 04:44:56;;;;;;;;;;;;;;;7.69;100.00;96836.22;5037870;28;19993;-82
2023/04/19 04:47:22;;;;;;;;;;;;;;;7.67;100.00;96829.59;5055475;28;19944;-84
2023/04/19 04:49:48;;;;;;;;;;;;;;;7.65;100.00;96832.38;5054701;28;20287;-84
2023/04/19 04:52:14;;;;;;;;;;;;;;;7.65;100.00;96831.56;5054624;28;19951;-76
2023/04/19 04:54:40;;;;;;;;;;;;;;;7.64;100.00;96833.38;5054187;28;19992;-72
2023/04/19 04:57:07;;;;;;;;;;;;;;;7.64;100.00;96827.34;5054164;28;19967;-85
2023/04/19 04:59:33;;;;;;;;;;;;;;;7.61;100.00;96825.91;5053427;28;20308;-84
2023/04/19 05:01:59;;;;;;;;;;;;;;;7.62;100.00;96829.31;5055406;28;19939;-82
2023/04/19 05:04:25;;;;;;;;;;;;;;;7.61;100.00;96832.94;5054029;28;20417;-82
2023/04/19 05:06:51;;;;;;;;;;;;;;;7.61;100.00;96825.91;5054046;28;19944;-82
2023/04/19 05:09:16;;;;;;;;;;;;;;;7.60;100.00;96820.88;5054907;28;19939;-82
2023/04/19 05:11:42;;;;;;;;;;;;;;;7.61;100.00;96827.72;5054685;28;19941;-72
2023/04/19 05:14:08;;;;;;;;;;;;;;;7.61;100.00;96832.94;5037324;28;19991;-72
2023/04/19 05:16:34;;;;;;;;;;;;;;;7.60;100.00;96828.72;5052881;28;19981;-72
2023/04/19 05:19:00;;;;;;;;;;;;;;;7.62;100.00;96834.53;5054285;28;19950;-72
2023/04/19 05:21:26;;;;;;;;;;;;;;;7.60;100.00;96829.53;5053041;28;19947;-72
2023/04/19 05:23:55;;;;;;;;;;;;;;;7.64;100.00;96827.34;5054492;28;19948;-72
2023/04/19 05:26:20;;;;;;;;;;;;;;;7.65;100.00;96836.78;5052820;28;19956;-72
2023/04/19 05:28:46;;;;;;;;;;;;;;;7.67;100.00;96835.59;5054663;28;19942;-72
2023/04/19 05:31:12;;;;;;;;;;;;;;;7.71;100.00;96828.22;5052888;28;19946;-73
2023/04/19 05:33:38;;;;;;;;;;;;;;;7.75;100.00;96831.22;5036857;28;19964;-74
2023/04/19 05:36:04;;;;;;;;;;;;;;;7.77;100.00;96839.69;5053381;28;20415;-73
2023/04/19 05:38:30;;;;;;;;;;;;;;;7.78;100.00;96838.69;5036848;28;20004;-73
2023/04/19 05:40:56;;;;;;;;;;;;;;;7.77;100.00;96842.28;5036154;28;20391;-74
2023/04/19 05:43:22;;;;;;;;;;;;;;;7.76;100.00;96843.31;5036071;28;19951;-73
2023/04/19 05:45:48;;;;;;;;;;;;;;;7.72;100.00;96842.84;5036804;28;19951;-73
2023/04/19 05:48:13;;;;;;;;;;;;;;;7.72;100.00;96848.09;5053826;28;19946;-76
2023/04/19 05:50:39;;;;;;;;;;;;;;;7.73;100.00;96841.88;5053420;28;19945;-71
2023/04/19 05:53:05;;;;;;;;;;;;;;;7.74;100.00;96856.53;5054002;28;20036;-72
2023/04/19 05:55:31;;;;;;;;;;;;;;;7.75;100.00;96841.66;5052528;28;19938;-72
2023/04/19 05:57:57;;;;;;;;;;;;;;;7.76;100.00;96843.31;5035750;28;19963;-72
2023/04/19 06:00:23;;;;;;;;;;;;;;;7.79;100.00;96848.13;5054455;28;19947;-72
2023/04/19 06:02:49;;;;;;;;;;;;;;;7.82;100.00;96853.78;5054181;28;20030;-72
2023/04/19 06:05:15;;;;;;;;;;;;;;;7.83;100.00;96855.41;5052285;28;19947;-72
2023/04/19 06:07:40;;;;;;;;;;;;;;;7.86;100.00;96854.22;5053906;28;19952;-80
2023/04/19 06:10:07;;;;;;;;;;;;;;;7.87;100.00;96855.81;5052349;28;20004;-73
2023/04/19 06:12:32;;;;;;;;;;;;;;;7.89;100.00;96851.22;5054032;28;19945;-73
2023/04/19 06:14:58;;;;;;;;;;;;;;;7.90;100.00;96860.69;5052187;28;19977;-73
2023/04/19 06:17:24;;;;;;;;;;;;;;;7.90;100.00;96858.88;5053014;28;19972;-73
2023/04/19 06:19:50;;;;;;;;;;;;;;;7.94;100.00;96864.53;5053893;28;20026;-73
2023/04/19 06:22:16;;;;;;;;;;;;;;;7.93;100.00;96865.50;5053370;28;19955;-73
2023/04/19 06:24:46;;;;;;;;;;;;;;;7.93;100.00;96868.91;5053415;28;19937;-79
2023/04/19 06:27:11;;;;;;;;;;;;;;;7.95;100.00;96871.34;5035554;28;19947;-73
2023/04/19 06:29:37;;;;;;;;;;;;;;;7.97;100.00;96861.53;5052880;28;19952;-73
2023/04/19 06:32:03;;;;;;;;;;;;;;;8.01;100.00;96864.56;5035448;28;19947;-74
2023/04/19 06:34:29;;;;;;;;;;;;;;;8.01;100.00;96860.13;5035450;28;20034;-74
2023/04/19 06:36:55;;;;;;;;;;;;;;;8.07;100.00;96858.56;5036064;28;19962;-73
2023/04/19 06:39:21;;;;;;;;;;;;;;;8.16;100.00;96860.03;5054245;28;19967;-73
2023/04/19 06:41:47;;;;;;;;;;;;;;;8.23;100.00;96850.44;5036240;28;19955;-73
2023/04/19 06:44:13;;;;;;;;;;;;;;;8.29;100.00;96860.13;5052019;28;19943;-73
2023/04/19 06:46:39;;;;;;;;;;;;;;;8.37;100.00;96855.72;5053369;28;19952;-73
2023/04/19 06:49:05;;;;;;;;;;;;;;;8.41;100.00;96856.97;5053352;28;19948;-72
2023/04/19 06:51:31;;;;;;;;;;;;;;;8.44;100.00;96848.75;5053630;28;19969;-72
2023/04/19 06:53:57;;;;;;;;;;;;;;;8.47;100.00;96843.16;5053084;28;19943;-74
2023/04/19 06:56:46;;;;;;;;;;;;;;;8.48;100.00;96847.34;5053620;28;19942;-73
2023/04/19 06:59:13;;;;;;;;;;;;;;;8.53;100.00;96844.97;5052305;28;20446;-73
2023/04/19 07:01:40;;;;;;;;;;;;;;;8.58;100.00;96833.94;5053070;28;19967;-76
2023/04/19 07:04:06;;;;;;;;;;;;;;;8.61;100.00;96842.19;5053001;28;19948;-73
2023/04/19 07:06:33;;;;;;;;;;;;;;;8.66;100.00;96834.56;5052916;28;19951;-73
2023/04/19 07:08:59;;;;;;;;;;;;;;;8.70;100.00;96838.41;5052970;28;19943;-73
2023/04/19 07:11:25;;;;;;;;;;;;;;;8.77;100.00;96837.63;5053788;28;19941;-73
2023/04/19 07:13:51;;;;;;;;;;;;;;;8.82;100.00;96830.81;5053692;28;19944;-73
2023/04/19 07:16:17;;;;;;;;;;;;;;;8.83;100.00;96840.25;5055040;28;20405;-72
2023/04/19 07:18:43;;;;;;;;;;;;;;;8.85;100.00;96837.44;5056395;28;20050;-73
2023/04/19 07:21:09;;;;;;;;;;;;;;;8.91;100.00;96854.97;5056964;28;19940;-73
2023/04/19 07:23:35;;;;;;;;;;;;;;;9.03;100.00;96831.63;5039495;28;19952;-73
2023/04/19 07:26:01;;;;;;;;;;;;;;;9.00;100.00;96832.03;5056967;28;20382;-74
2023/04/19 07:28:30;;;;;;;;;;;;;;;9.00;100.00;96830.22;5057171;28;19940;-73
2023/04/19 07:30:56;;;;;;;;;;;;;;;9.03;100.00;96823.78;5055885;28;19959;-74
2023/04/19 07:33:23;;;;;;;;;;;;;;;9.07;99.95;96827.63;5056382;28;20309;-73
2023/04/19 07:35:50;;;;;;;;;;;;;;;8.96;97.11;96813.31;5056848;28;19937;-73
2023/04/19 07:38:16;;;;;;;;;;;;;;;8.86;98.02;96812.88;5056637;28;19958;-78
2023/04/19 07:40:42;;;;;;;;;;;;;;;8.94;99.63;96826.63;5057048;28;19952;-70
2023/04/19 07:43:08;;;;;;;;;;;;;;;9.01;98.46;96828.41;5056096;28;19940;-73
2023/04/19 07:45:34;;;;;;;;;;;;;;;9.05;99.59;96827.84;5055854;28;20022;-73
2023/04/19 07:48:00;;;;;;;;;;;;;;;9.10;98.88;96827.25;5055106;28;19936;-74
2023/04/19 07:50:26;;;;;;;;;;;;;;;9.15;98.97;96822.19;5056516;28;20011;-73
2023/04/19 07:52:52;;;;;;;;;;;;;;;9.19;98.70;96826.03;5056444;28;19955;-73
2023/04/19 07:55:18;;;;;;;;;;;;;;;9.25;99.21;96827.84;5054757;28;20405;-73
2023/04/19 07:57:47;;;;;;;;;;;;;;;9.31;98.74;96823.66;5056484;28;20306;-74
2023/04/19 08:00:14;;;;;;;;;;;;;;;9.39;97.60;96812.19;5056530;28;19944;-71
2023/04/19 08:02:46;;;;;;;;;;;;;;;9.41;96.63;96808.34;5054668;28;19939;-70
2023/04/19 08:05:16;;;;;;;;;;;;;;;9.48;95.82;96811.75;5055780;28;20296;-71
2023/04/19 08:07:42;;;;;;;;;;;;;;;9.54;96.26;96816.19;5055775;28;19949;-70
2023/04/19 08:10:08;;;;;;;;;;;;;;;9.60;96.35;96809.34;5054526;28;20432;-71
2023/04/19 08:12:35;;;;;;;;;;;;;;;9.66;96.32;96810.34;5056250;28;19945;-70
2023/04/19 08:15:01;;;;;;;;;;;;;;;9.73;94.87;96801.47;5055437;28;20458;-73
2023/04/19 08:17:27;;;;;;;;;;;;;;;9.73;93.77;96783.16;5037765;28;19963;-74
2023/04/19 08:19:53;;;;;;;;;;;;;;;9.79;92.78;96783.34;5054351;28;19949;-74
2023/04/19 08:22:20;;;;;;;;;;;;;;;9.88;92.25;96774.25;5055436;28;19941;-74
2023/04/19 08:24:48;;;;;;;;;;;;;;;10.00;90.13;96770.00;5055972;28;19951;-74
2023/04/19 08:27:14;;;;;;;;;;;;;;;9.96;91.35;96779.28;5055189;28;19954;-74
2023/04/19 08:29:39;;;;;;;;;;;;;;;10.04;91.99;96788.75;5055341;28;19944;-74
2023/04/19 08:32:06;;;;;;;;;;;;;;;10.04;89.27;96771.19;5055268;28;19943;-74
2023/04/19 08:34:35;;;;;;;;;;;;;;;10.04;89.38;96768.56;5055282;28;19943;-75
2023/04/19 08:37:02;;;;;;;;;;;;;;;10.06;89.37;96760.53;5054223;28;19961;-73
2023/04/19 08:39:28;;;;;;;;;;;;;;;10.09;91.31;96779.22;5053829;28;19975;-72
2023/04/19 08:41:55;;;;;;;;;;;;;;;10.19;88.38;96755.22;5037267;28;19947;-72
2023/04/19 08:44:21;;;;;;;;;;;;;;;10.23;90.81;96773.97;5038045;28;20282;-72
2023/04/19 08:46:49;;;;;;;;;;;;;;;10.28;90.21;96772.31;5055551;28;20293;-72
2023/04/19 08:49:15;;;;;;;;;;;;;;;10.33;90.68;96777.78;5055497;28;20325;-72
2023/04/19 08:51:41;;;;;;;;;;;;;;;10.42;90.40;96765.25;5055018;28;19960;-74
2023/04/19 08:54:08;;;;;;;;;;;;;;;10.50;89.86;96767.63;5037880;28;20308;-79
2023/04/19 08:56:34;;;;;;;;;;;;;;;10.59;89.05;96756.91;5054283;28;19948;-75
2023/04/19 08:59:00;;;;;;;;;;;;;;;10.70;89.53;96767.50;5037647;28;19970;-76
2023/04/19 09:01:26;;;;;;;;;;;;;;;10.80;88.23;96753.16;5053591;28;19939;-75
2023/04/19 09:03:52;;;;;;;;;;;;;;;10.90;85.01;96724.63;5037647;28;19948;-75
2023/04/19 09:06:18;;;;;;;;;;;;;;;10.96;86.25;96735.06;5053361;28;19999;-75
2023/04/19 09:08:44;;;;;;;;;;;;;;;11.00;86.91;96740.69;5036840;28;19947;-74
2023/04/19 09:11:09;;;;;;;;;;;;;;;11.00;87.67;96745.13;5053915;28;20069;-72
2023/04/19 09:13:37;;;;;;;;;;;;;;;11.03;86.35;96735.00;5036699;28;19953;-73
2023/04/19 09:16:03;;;;;;;;;;;;;;;11.06;86.12;96725.91;5054274;28;20016;-74
2023/04/19 09:18:29;;;;;;;;;;;;;;;11.31;85.89;96729.31;5054305;28;19962;-74
2023/04/19 09:20:59;;;;;;;;;;;;;;;11.68;86.11;96720.72;5054414;28;20323;-75
2023/04/19 09:23:25;;;;;;;;;;;;;;;11.84;85.59;96714.88;5054261;28;19953;-75
2023/04/19 09:25:51;;;;;;;;;;;;;;;11.86;83.34;96697.06;5054249;28;19948;-74
2023/04/19 09:28:17;;;;;;;;;;;;;;;11.80;84.29;96705.84;5054580;28;19949;-78
2023/04/19 09:30:43;;;;;;;;;;;;;;;11.74;81.53;96683.88;5053083;28;20027;-71
2023/04/19 09:33:09;;;;;;;;;;;;;;;11.73;81.03;96674.38;5053571;28;19937;-75
2023/04/19 09:35:40;;;;;;;;;;;;;;;11.90;82.59;96693.00;5052383;28;20141;-76
2023/04/19 09:38:05;;;;;;;;;;;;;;;12.00;80.50;96673.31;5053737;28;19956;-75
2023/04/19 09:40:31;;;;;;;;;;;;;;;12.03;81.80;96686.78;5054870;28;20000;-75
2023/04/19 09:42:57;;;;;;;;;;;;;;;12.07;82.01;96681.91;5052756;28;19939;-75
2023/04/19 09:45:23;;;;;;;;;;;;;;;12.12;81.51;96680.22;5054552;28;19947;-75
2023/04/19 09:48:02;;;;;;;;;;;;;;;12.26;81.91;96682.66;5054586;28;19935;-75
2023/04/19 09:50:28;;;;;;;;;;;;;;;12.68;81.99;96678.25;5052678;28;19943;-75
2023/04/19 09:52:54;;;;;;;;;;;;;;;13.09;81.28;96645.00;5053858;28;19984;-75
2023/04/19 09:55:21;;;;;;;;;;;;;;;13.30;79.89;96645.50;5054597;28;19946;-75
2023/04/19 09:57:47;;;;;;;;;;;;;;;13.57;78.11;96622.09;5053726;28;19959;-75
2023/04/19 10:00:14;;;;;;;;;;;;;;;13.77;74.26;96590.06;5053777;28;19997;-75
2023/04/19 10:02:41;;;;;;;;;;;;;;;13.98;77.65;96613.16;5054520;28;19952;-75
2023/04/19 10:05:10;;;;;;;;;;;;;;;14.25;71.63;96564.28;5053728;28;19947;-74
2023/04/19 10:07:36;;;;;;;;;;;;;;;14.44;71.48;96570.16;5054513;28;20379;-71
2023/04/19 10:10:03;;;;;;;;;;;;;;;14.55;77.37;96596.50;5053640;28;19940;-80
2023/04/19 10:12:30;;;;;;;;;;;;;;;14.35;71.52;96567.91;5052457;28;19950;-80
2023/04/19 10:14:58;;;;;;;;;;;;;;;14.08;69.86;96546.59;5053822;28;19981;-79
2023/04/19 10:17:25;;;;;;;;;;;;;;;13.88;76.92;96622.69;5052329;28;19955;-79
2023/04/19 10:19:54;;;;;;;;;;;;;;;13.82;71.36;96569.09;5053466;28;20036;-80
2023/04/19 10:22:20;;;;;;;;;;;;;;;13.97;73.05;96577.25;5052351;28;20382;-80
2023/04/19 10:25:18;;;;;;;;;;;;;;;14.20;67.20;96523.59;5052346;28;19952;-75
2023/04/19 10:27:45;;;;;;;;;;;;;;;14.44;67.26;96618.44;5045703;28;19949;-73
2023/04/19 10:30:21;;;;;;;;;;;;;;;14.62;71.43;96649.13;5035820;28;20309;-74
2023/04/19 10:32:52;;;;;;;;;;;;;;;14.78;71.42;96652.81;5035544;28;19948;-73
2023/04/19 10:35:20;;;;;;;;;;;;;;;14.85;68.29;96637.63;5036393;28;20272;-73
2023/04/19 10:38:05;;;;;;;;;;;;;;;14.74;68.31;96638.47;5052087;28;19963;-73
2023/04/19 10:40:54;;;;;;;;;;;;;;;14.55;68.02;96635.25;5053250;28;19939;-73
2023/04/19 10:43:21;;;;;;;;;;;;;;;14.20;70.87;96655.47;5053297;28;19943;-74
2023/04/19 10:45:47;;;;;;;;;;;;;;;13.96;69.33;96661.88;5035538;28;19950;-72
2023/04/19 10:48:25;;;;;;;;;;;;;;;13.83;72.95;96667.41;5053827;28;19994;-72
2023/04/19 10:50:56;;;;;;;;;;;;;;;13.74;71.10;96651.94;5054914;28;19950;-73
2023/04/19 10:53:40;;;;;;;;;;;;;;;13.66;71.95;96662.06;5039294;28;20017;-73
2023/04/19 10:56:06;;;;;;;;;;;;;;;13.49;72.52;96654.06;5057674;28;20312;-72
2023/04/19 10:58:52;;;;;;;;;;;;;;;13.33;70.08;96643.22;5055888;28;19958;-73
2023/04/19 11:01:30;;;;;;;;;;;;;;;13.20;72.26;96665.25;5057404;28;19941;-72
2023/04/19 11:03:56;;;;;;;;;;;;;;;13.10;72.59;96653.69;5055851;28;19952;-72
2023/04/19 11:06:25;;;;;;;;;;;;;;;12.99;74.56;96658.72;5055645;28;20041;-73
2023/04/19 11:08:52;;;;;;;;;;;;;;;12.84;74.68;96662.84;5057735;28;20368;-72
2023/04/19 11:11:18;;;;;;;;;;;;;;;12.74;74.08;96658.13;5039021;28;19938;-72
2023/04/19 11:13:46;;;;;;;;;;;;;;;12.68;75.72;96656.38;5039873;28;20395;-72
2023/04/19 11:16:12;;;;;;;;;;;;;;;12.65;76.73;96660.28;5055524;28;19974;-72
2023/04/19 11:18:38;;;;;;;;;;;;;;;12.58;76.08;96659.59;5055816;28;19961;-74
2023/04/19 11:21:04;;;;;;;;;;;;;;;12.49;74.33;96647.75;5056722;28;19944;-79
2023/04/19 11:23:30;;;;;;;;;;;;;;;12.43;77.06;96661.81;5056730;28;19941;-72
2023/04/19 11:25:56;;;;;;;;;;;;;;;12.33;76.16;96652.63;5038776;28;19944;-72
2023/04/19 11:28:22;;;;;;;;;;;;;;;12.32;75.71;96656.28;5057241;28;19948;-72
2023/04/19 11:30:48;;;;;;;;;;;;;;;12.33;75.76;96649.22;5039173;28;19991;-72
2023/04/19 11:33:14;;;;;;;;;;;;;;;12.34;75.91;96643.72;5055259;28;19945;-72
2023/04/19 11:35:42;;;;;;;;;;;;;;;12.40;75.88;96649.91;5056875;28;19943;-72
2023/04/19 11:38:11;;;;;;;;;;;;;;;12.43;75.12;96638.97;5055056;28;19964;-71
2023/04/19 11:40:37;;;;;;;;;;;;;;;12.45;73.18;96623.75;5055681;28;19938;-73
2023/04/19 11:43:04;;;;;;;;;;;;;;;12.45;74.55;96626.38;5021525;28;19949;-74
2023/04/19 11:45:31;;;;;;;;;;;;;;;12.42;74.81;96632.06;5056757;28;19943;-73
2023/04/19 11:47:57;;;;;;;;;;;;;;;12.41;73.68;96613.88;5056180;28;20284;-73
2023/04/19 11:50:30;;;;;;;;;;;;;;;12.49;74.65;96627.50;5056103;28;19944;-73
2023/04/19 11:52:56;;;;;;;;;;;;;;;12.61;72.37;96611.75;5056795;28;20293;-74
2023/04/19 11:55:22;;;;;;;;;;;;;;;12.71;72.35;96608.59;5055888;28;19952;-76
2023/04/19 11:57:48;;;;;;;;;;;;;;;12.80;73.22;96600.09;5055061;28;19937;-71
2023/04/19 12:00:15;;;;;;;;;;;;;;;12.80;70.78;96592.22;5055836;28;19966;-75
2023/04/19 12:02:42;;;;;;;;;;;;;;;12.74;72.08;96600.22;5054831;28;19943;-76
2023/04/19 12:05:13;;;;;;;;;;;;;;;12.67;71.85;96596.91;5055836;28;19933;-75
2023/04/19 12:07:57;;;;;;;;;;;;;;;12.58;73.50;96612.22;5055196;28;19940;-77
2023/04/19 12:10:23;;;;;;;;;;;;;;;12.60;73.69;96610.19;5056207;28;19947;-76
2023/04/19 12:12:49;;;;;;;;;;;;;;;12.61;74.43;96613.59;5054537;28;19938;-76
2023/04/19 12:15:15;;;;;;;;;;;;;;;12.63;73.72;96604.44;5055481;28;20396;-75
2023/04/19 12:18:03;;;;;;;;;;;;;;;12.64;73.61;96592.91;5055736;28;19946;-72
2023/04/19 12:20:28;;;;;;;;;;;;;;;12.72;72.97;96597.81;5038534;28;19955;-72
2023/04/19 12:22:54;;;;;;;;;;;;;;;12.84;73.81;96602.31;5055091;28;20064;-72
2023/04/19 12:25:20;;;;;;;;;;;;;;;12.82;73.56;96596.47;5038484;28;19996;-73
2023/04/19 12:27:46;;;;;;;;;;;;;;;12.80;72.89;96596.69;5055457;28;19984;-72
2023/04/19 12:30:12;;;;;;;;;;;;;;;12.77;75.05;96602.41;5037471;28;19946;-72
2023/04/19 12:32:38;;;;;;;;;;;;;;;12.76;74.12;96600.78;5054463;28;19946;-76
2023/04/19 12:35:04;;;;;;;;;;;;;;;12.74;74.17;96606.28;5054985;28;20455;-81
2023/04/19 12:37:30;;;;;;;;;;;;;;;12.66;73.96;96604.00;5055094;28;19959;-75
2023/04/19 12:39:56;;;;;;;;;;;;;;;12.50;74.69;96602.81;5038063;28;20354;-75
2023/04/19 12:42:21;;;;;;;;;;;;;;;12.34;76.02;96614.00;5038040;28;19942;-76
2023/04/19 12:44:47;;;;;;;;;;;;;;;12.24;77.12;96618.97;5038060;28;20339;-76
2023/04/19 12:47:13;;;;;;;;;;;;;;;12.14;77.72;96628.22;5053886;28;20410;-75